Latest Weather Observations for Renmark Airport

IDS60801

Issued at 9:05 am CDT Thursday 23 October 2014 (issued every 30 minutes, with the page automatically refreshed every 10 minutes)

About weather observations | Map of weather stations | Latest weather observations for SA | Other Formats
Station Details ID: 024048 Name: RENMARK AERO Lat: -34.20 Lon: 140.68 Height: 31.5 m
Data from the previous 72 hours. | See also: Recent months at Renmark Airport
Date/Time
CDT
Temp
°C
App
Temp
°C
Dew
Point
Rel
Hum
%
Delta-T
°C
Wind Press
QNH
hPa
Press
MSL
hPa
Rain
since 9 am
mm
Dir
 
Spd
km/h
Gust
km/h
Spd
kts
Gust
kts
23/09:00am 17.4 14.4 10.8 65 3.5 S 17 24 9 13 1017.6 1017.5 0.0
23/08:30am 16.1 12.8 10.8 71 2.8 S 19 28 10 15 1017.6 1017.5 0.0
23/08:00am 15.2 11.9 11.0 76 2.2 S 19 26 10 14 1017.6 1017.5 0.0
23/07:30am 14.6 11.8 11.4 81 1.7 SW 17 24 9 13 1017.7 1017.6 0.0
23/07:00am 13.7 11.3 11.4 86 1.2 SSW 15 24 8 13 1017.6 1017.5 0.0
23/06:30am 13.2 10.5 11.8 91 0.7 SSW 17 24 9 13 1017.1 1017.0 0.0
23/06:00am 13.2 10.6 11.9 92 0.7 SW 17 30 9 16 1017.1 1017.0 0.0
23/05:30am 13.5 10.9 12.1 91 0.8 SSW 17 28 9 15 1016.4 1016.3 0.0
23/05:00am 13.8 10.7 12.2 90 0.9 SW 20 32 11 17 1015.9 1015.8 0.0
23/04:30am 13.7 11.2 12.4 92 0.7 SSW 17 28 9 15 1015.6 1015.5 0.0
23/04:00am 13.6 11.2 12.5 93 0.6 SW 17 24 9 13 1015.6 1015.5 0.0
23/03:30am 13.6 10.8 12.7 94 0.5 SW 19 26 10 14 1015.6 1015.5 0.0
23/03:00am 13.6 11.2 12.5 93 0.6 SW 17 26 9 14 1015.6 1015.5 0.0
23/02:30am 13.7 11.2 12.4 92 0.7 WSW 17 24 9 13 1015.9 1015.8 0.0
23/02:00am 13.9 11.8 12.3 90 0.9 SW 15 20 8 11 1015.9 1015.8 0.0
23/01:30am 14.2 11.9 11.9 86 1.2 WSW 15 20 8 11 1016.6 1016.5 0.0
23/01:00am 14.6 12.3 11.7 83 1.6 SW 15 22 8 12 1017.0 1016.9 0.0
23/12:30am 14.9 12.2 11.7 81 1.7 SW 17 26 9 14 1017.2 1017.1 0.0
23/12:00am 15.3 12.2 11.7 79 1.9 SW 19 30 10 16 1017.1 1017.0 0.0
 
Date/Time
CDT
Temp
°C
App
Temp
°C
Dew
Point
Rel
Hum
%
Delta-T
°C
Wind Press
QNH
hPa
Press
MSL
hPa
Rain
since 9 am
mm
Dir
 
Spd
km/h
Gust
km/h
Spd
kts
Gust
kts
22/11:30pm 15.8 12.7 11.6 76 2.3 SW 19 26 10 14 1017.0 1016.9 0.0
22/11:00pm 16.4 13.3 11.6 73 2.6 SW 19 28 10 15 1017.1 1017.0 0.0
22/10:30pm 17.3 14.0 11.6 69 3.1 SW 20 30 11 16 1017.4 1017.3 0.0
22/10:00pm 18.3 14.2 11.4 64 3.8 SW 24 35 13 19 1017.3 1017.2 0.0
22/09:30pm 19.8 15.5 10.8 56 4.9 SW 24 43 13 23 1017.1 1017.0 0.0
22/09:00pm 21.9 17.8 10.1 47 6.4 SW 22 35 12 19 1016.5 1016.4 0.0
22/08:30pm 24.0 20.2 9.9 41 7.7 SW 20 32 11 17 1015.8 1015.7 0.0
22/08:00pm 25.7 21.4 9.5 36 8.9 SSW 22 35 12 19 1015.2 1015.2 0.0
22/07:30pm 27.2 22.3 8.6 31 10.1 SSW 24 35 13 19 1014.6 1014.6 0.0
22/07:00pm 28.7 23.9 7.3 26 11.5 SW 22 32 12 17 1014.2 1014.2 0.0
22/06:30pm 28.9 22.9 6.9 25 11.8 SW 28 41 15 22 1013.7 1013.7 0.0
22/06:00pm 29.2 23.5 8.3 27 11.5 SW 28 44 15 24 1013.5 1013.5 0.0
22/05:30pm 32.2 25.3 7.1 21 13.7 SSW 33 46 18 25 1013.0 1013.0 0.0
22/05:16pm 34.5 28.0 6.7 18 15.3 SSW 30 43 16 23 1012.6 1012.6 0.0
22/05:00pm 37.0 31.0 -2.7 8 19.0 SSW 19 24 10 13 1012.3 1012.3 0.0
22/04:30pm 35.8 29.0 -2.0 9 18.2 WNW 24 35 13 19 1012.6 1012.6 0.0
22/04:08pm 36.6 28.9 -3.0 8 18.9 NNW 28 44 15 24 1012.0 1012.0 0.0
22/04:00pm 37.0 31.8 -2.7 8 19.0 NNW 15 24 8 13 1012.2 1012.2 0.0
22/03:30pm 37.8 31.1 -3.9 7 19.7 N 22 32 12 17 1012.3 1012.3 0.0
22/03:00pm 37.2 32.2 -4.3 7 19.4 W 13 20 7 11 1012.7 1012.7 0.0
22/02:30pm 36.9 32.1 -2.7 8 19.0 NNE 13 20 7 11 1013.1 1013.1 0.0
22/02:00pm 37.1 32.3 -2.6 8 19.1 ENE 13 19 7 10 1013.6 1013.6 0.0
22/01:30pm 37.4 32.6 -2.4 8 19.2 E 13 20 7 11 1014.1 1014.1 0.0
22/01:00pm 35.4 30.6 -2.3 9 18.0 NE 13 20 7 11 1014.6 1014.6 0.0
22/12:30pm 37.0 32.8 -1.1 9 18.7 NE 11 19 6 10 1015.0 1015.0 0.0
22/12:00pm 36.2 31.7 -0.2 10 18.1 NNE 13 19 7 10 1015.6 1015.5 0.0
22/11:30am 33.4 29.1 1.3 13 16.0 NE 13 19 7 10 1016.1 1016.0 0.0
22/11:00am 30.5 26.2 3.5 18 13.7 NNE 15 19 8 10 1016.4 1016.3 0.0
22/10:30am 29.8 26.2 5.1 21 12.9 ENE 13 15 7 8 1016.6 1016.5 0.0
22/10:00am 28.3 25.6 3.9 21 12.3 ESE 7 13 4 7 1016.8 1016.7 0.0
22/09:30am 26.8 25.3 5.1 25 11.1 N 2 13 1 7 1017.0 1016.9 0.0
22/09:00am 25.7 23.4 5.8 28 10.2 ENE 7 11 4 6 1016.6 1016.5 0.0
22/08:30am 25.5 21.5 5.1 27 10.3 E 15 19 8 10 1016.2 1016.1 0.0
22/08:00am 22.5 18.5 5.0 32 8.7 SE 15 20 8 11 1015.9 1015.8 0.0
22/07:30am 21.7 16.8 5.2 34 8.2 SSE 20 30 11 16 1015.9 1015.8 0.0
22/07:00am 21.9 16.7 5.3 34 8.3 SE 22 30 12 16 1015.8 1015.7 0.0
22/06:30am 21.3 19.2 8.2 43 6.8 N 9 13 5 7 1016.6 1016.5 0.0
22/06:16am 19.1 12.7 5.2 40 6.8 WNW 28 44 15 24 1017.2 1017.1 0.0
22/06:00am 17.7 14.7 3.9 40 6.5 ESE 9 11 5 6 1015.7 1015.6 0.0
22/05:30am 20.0 16.0 4.9 37 7.4 ESE 15 17 8 9 1015.1 1015.1 0.0
22/05:00am 20.3 16.6 4.4 35 7.7 SE 13 17 7 9 1015.1 1015.1 0.0
22/04:30am 20.9 17.3 4.9 35 7.8 SE 13 15 7 8 1015.2 1015.2 0.0
22/04:00am 20.8 18.7 4.0 33 8.1 SE 4 13 2 7 1015.6 1015.5 0.0
22/03:30am 22.2 18.4 3.8 30 8.9 ESE 13 17 7 9 1015.5 1015.4 0.0
22/03:00am 24.8 22.1 2.9 24 10.6 SSE 6 13 3 7 1016.4 1016.3 0.0
22/02:30am 26.2 21.1 2.8 22 11.4 NNE 19 26 10 14 1016.7 1016.6 0.0
22/02:12am 22.0 15.3 3.6 30 8.9 WNW 28 33 15 18 1017.3 1017.2 0.0
22/02:00am 22.7 19.5 2.8 27 9.5 NE 9 13 5 7 1016.4 1016.3 0.0
22/01:30am 21.1 17.6 1.4 27 9.0 E 9 11 5 6 1016.6 1016.5 0.0
22/01:00am 22.2 18.2 0.7 24 9.8 E 11 13 6 7 1016.9 1016.8 0.0
22/12:30am 23.0 19.3 0.2 22 10.4 E 9 11 5 6 1017.2 1017.1 0.0
22/12:00am 24.7 21.3 -0.4 19 11.4 E 7 11 4 6 1017.4 1017.3 0.0
 
Date/Time
CDT
Temp
°C
App
Temp
°C
Dew
Point
Rel
Hum
%
Delta-T
°C
Wind Press
QNH
hPa
Press
MSL
hPa
Rain
since 9 am
mm
Dir
 
Spd
km/h
Gust
km/h
Spd
kts
Gust
kts
21/11:30pm 25.6 21.5 -0.5 18 11.9 E 11 13 6 7 1017.5 1017.4 0.0
21/11:00pm 26.3 21.3 -1.5 16 12.6 E 15 19 8 10 1017.6 1017.5 0.0
21/10:30pm 25.1 20.9 -0.9 18 11.8 SE 11 20 6 11 1017.5 1017.4 0.0
21/10:00pm 23.3 21.3 -0.2 21 10.6 CALM 0 4 0 2 1017.4 1017.3 0.0
21/09:30pm 24.1 22.1 -0.2 20 11.0 CALM 0 6 0 3 1017.4 1017.3 0.0
21/09:00pm 27.2 25.1 -0.8 16 12.9 CALM 0 6 0 3 1017.3 1017.2 0.0
21/08:30pm 29.4 26.0 -0.9 14 14.2 E 7 11 4 6 1017.0 1016.9 0.0
21/08:00pm 30.5 27.0 -1.0 13 14.8 ESE 7 9 4 5 1016.8 1016.7 0.0
21/07:30pm 31.7 28.2 -1.2 12 15.6 SE 7 7 4 4 1016.6 1016.5 0.0
21/07:00pm 32.6 28.5 -2.9 10 16.5 E 9 13 5 7 1016.5 1016.4 0.0
21/06:30pm 34.6 30.0 -4.4 8 17.9 SE 11 13 6 7 1016.4 1016.3 0.0
21/06:00pm 35.5 30.8 -5.5 7 18.6 SE 11 15 6 8 1016.5 1016.4 0.0
21/05:30pm 35.8 31.5 -5.3 7 18.7 ESE 9 13 5 7 1016.5 1016.4 0.0
21/05:00pm 36.2 31.1 -5.0 7 18.9 ESE 13 20 7 11 1016.5 1016.4 0.0
21/04:30pm 36.1 31.6 -7.1 6 19.2 E 9 17 5 9 1016.5 1016.4 0.0
21/04:00pm 36.2 30.5 -7.0 6 19.2 ENE 15 24 8 13 1016.8 1016.7 0.0
21/03:30pm 36.7 31.7 -4.7 7 19.2 E 13 22 7 12 1017.1 1017.0 0.0
21/03:00pm 36.5 30.5 -6.8 6 19.4 ENE 17 33 9 18 1017.4 1017.3 0.0
21/02:30pm 37.1 32.1 -4.4 7 19.4 N 13 20 7 11 1018.1 1018.0 0.0
21/02:00pm 37.1 33.1 -2.6 8 19.1 N 9 19 5 10 1018.7 1018.6 0.0
21/01:30pm 36.1 29.9 -3.3 8 18.6 N 20 26 11 14 1019.2 1019.1 0.0
21/01:00pm 35.4 30.3 -2.3 9 18.0 NNE 15 30 8 16 1019.6 1019.5 0.0
21/12:30pm 34.8 30.2 -1.3 10 17.4 NNE 13 24 7 13 1020.2 1020.1 0.0
21/12:00pm 33.3 28.5 0.1 12 16.2 N 15 22 8 12 1020.9 1020.8 0.0
21/11:30am 32.4 28.0 0.5 13 15.6 NE 13 19 7 10 1021.2 1021.1 0.0
21/11:00am 30.4 26.2 1.8 16 14.1 NNE 13 20 7 11 1021.6 1021.5 0.0
21/10:30am 28.6 24.5 2.0 18 13.0 NNE 13 20 7 11 1022.0 1021.9 0.0
21/10:00am 27.3 23.2 2.4 20 12.2 NE 13 19 7 10 1022.2 1022.1 0.0
21/09:30am 25.2 21.5 2.6 23 10.9 ENE 11 17 6 9 1022.1 1022.0 0.0
21/09:00am 23.2 19.1 2.1 25 9.9 E 13 19 7 10 1022.2 1022.1 -
21/08:30am 20.7 16.6 2.5 30 8.5 E 13 17 7 9 1022.4 1022.3 -
21/08:00am 19.1 14.9 1.6 31 7.9 E 13 15 7 8 1022.4 1022.3 -
21/07:30am 17.2 13.8 2.0 36 6.8 E 9 11 5 6 1022.1 1022.0 -
21/07:00am 16.2 13.2 2.2 39 6.3 ESE 7 9 4 5 1021.9 1021.8 -
21/06:30am 13.8 10.5 2.4 46 5.0 ESE 9 11 5 6 1021.7 1021.6 -
21/06:00am 13.8 10.1 2.1 45 5.1 E 11 15 6 8 1021.3 1021.2 -
21/05:30am 14.0 10.7 2.3 45 5.1 E 9 13 5 7 1021.0 1020.9 -
21/05:00am 15.5 12.1 2.0 40 6.0 E 9 13 5 7 1020.9 1020.8 -
21/04:30am 15.4 12.0 1.9 40 5.9 ESE 9 11 5 6 1020.8 1020.7 -
21/04:00am 16.1 13.1 2.2 39 6.2 SE 7 9 4 5 1021.0 1020.9 -
21/03:30am 15.9 13.2 2.7 41 5.9 ESE 6 7 3 4 1021.0 1020.9 -
21/03:00am 16.7 13.4 2.3 38 6.5 ESE 9 11 5 6 1021.1 1021.0 0.0
21/02:30am 16.9 13.6 2.5 38 6.5 ESE 9 11 5 6 1021.3 1021.2 -
21/02:00am 17.1 13.4 2.3 37 6.7 ESE 11 13 6 7 1021.6 1021.5 -
21/01:30am 17.8 14.1 2.2 35 7.1 ESE 11 13 6 7 1021.8 1021.7 -
21/01:00am 19.3 15.2 2.2 32 7.9 E 13 15 7 8 1022.0 1021.9 -
21/12:30am 19.9 15.8 2.3 31 8.1 ESE 13 15 7 8 1022.2 1022.1 -
21/12:00am 20.2 16.5 2.1 30 8.3 ESE 11 13 6 7 1022.3 1022.2 -
 
Date/Time
CDT
Temp
°C
App
Temp
°C
Dew
Point
Rel
Hum
%
Delta-T
°C
Wind Press
QNH
hPa
Press
MSL
hPa
Rain
since 9 am
mm
Dir
 
Spd
km/h
Gust
km/h
Spd
kts
Gust
kts
20/11:30pm 21.2 17.4 2.0 28 8.9 ESE 11 15 6 8 1022.3 1022.2 -
20/11:00pm 21.5 17.9 2.7 29 8.9 ESE 11 13 6 7 1022.4 1022.3 -
20/10:30pm 21.6 18.4 3.3 30 8.7 ESE 9 11 5 6 1022.4 1022.3 -
20/10:00pm 20.8 16.8 3.1 31 8.4 ESE 13 13 7 7 1022.4 1022.3 -
20/09:30pm 22.3 18.8 3.4 29 9.1 ESE 11 11 6 6 1022.4 1022.3 -
20/09:00pm 23.1 20.4 3.6 28 9.4 ESE 7 9 4 5 1022.3 1022.2 0.0
20/08:30pm 24.2 21.5 3.5 26 10.1 ESE 7 9 4 5 1022.2 1022.1 -
20/08:00pm 25.1 21.9 3.1 24 10.7 SE 9 11 5 6 1021.7 1021.6 -
20/07:30pm 25.8 22.6 3.1 23 11.1 SE 9 11 5 6 1021.4 1021.3 -
20/07:00pm 28.3 23.9 2.5 19 12.7 ESE 15 17 8 9 1020.9 1020.8 -
20/06:30pm 29.4 24.2 2.6 18 13.3 SE 19 24 10 13 1020.7 1020.6 -
20/06:00pm 30.2 24.8 2.5 17 13.8 SE 20 24 11 13 1020.5 1020.4 -
20/05:30pm 31.5 26.3 2.7 16 14.5 SE 19 28 10 15 1020.6 1020.5 -
20/05:00pm 32.4 27.6 2.5 15 15.1 ESE 17 24 9 13 1020.5 1020.4 -
20/04:30pm 32.2 27.4 0.3 13 15.5 E 15 24 8 13 1020.6 1020.5 -
20/04:00pm 31.5 26.8 0.8 14 15.0 E 15 22 8 12 1021.0 1020.9 -
20/03:30pm 30.7 26.6 2.0 16 14.2 ESE 13 19 7 10 1021.5 1021.4 -
20/03:00pm 30.5 26.1 2.7 17 13.9 E 15 24 8 13 1021.8 1021.7 -
20/02:30pm 29.5 25.5 2.7 18 13.3 ESE 13 22 7 12 1022.3 1022.2 -
20/01:00pm 26.8 23.4 5.7 26 10.9 SSE 13 24 7 13 1023.8 1023.7 0.0
20/12:30pm 25.7 22.4 6.3 29 10.0 E 13 20 7 11 1024.2 1024.1 0.0
20/12:00pm 24.3 21.5 7.0 33 9.0 ESE 11 19 6 10 1024.6 1024.5 0.0
20/11:30am 23.2 20.1 7.3 36 8.2 E 13 24 7 13 1025.1 1025.0 0.0
20/11:00am 21.9 18.8 7.3 39 7.5 ESE 13 22 7 12 1025.6 1025.5 0.0
20/10:30am 20.8 17.1 7.8 43 6.7 SE 17 26 9 14 1025.8 1025.7 0.0
20/10:00am 19.3 15.2 7.7 47 5.9 ESE 19 26 10 14 1026.0 1025.9 0.0
20/09:30am 18.0 14.2 7.7 51 5.2 ESE 17 24 9 13 1026.1 1026.0 0.0

Other Formats:

Comma delimited format used in spreadsheet applications
http://www.bom.gov.au/fwo/IDS60801/IDS60801.95687.axf

JavaScript Object Notation format (JSON) in row-major order
http://www.bom.gov.au/fwo/IDS60801/IDS60801.95687.json